createdAt,value
2018-08-06T00:01:06.046Z,22.20
2018-08-06T00:03:35.922Z,22.10
2018-08-06T00:06:06.088Z,22.10
2018-08-06T00:08:36.070Z,22.10
2018-08-06T00:11:06.026Z,22.20
2018-08-06T00:13:36.051Z,22.20
2018-08-06T00:16:06.186Z,22.10
2018-08-06T00:18:36.146Z,21.90
2018-08-06T00:21:06.086Z,21.70
2018-08-06T00:23:36.290Z,21.60
2018-08-06T00:26:06.457Z,21.60
2018-08-06T00:28:36.314Z,22.00
2018-08-06T00:31:06.177Z,22.30
2018-08-06T00:33:36.262Z,22.30
2018-08-06T00:36:06.705Z,22.20
2018-08-06T00:38:36.286Z,22.20
2018-08-06T00:41:06.384Z,22.10
2018-08-06T00:43:36.408Z,22.10
2018-08-06T00:46:06.498Z,22.10
2018-08-06T00:48:36.288Z,21.90
2018-08-06T00:51:06.395Z,21.80
2018-08-06T00:53:36.461Z,21.80
2018-08-06T00:56:06.542Z,21.70
2018-08-06T00:58:36.477Z,21.60
2018-08-06T01:01:06.503Z,21.60
2018-08-06T01:03:36.454Z,21.60
2018-08-06T01:06:06.437Z,21.80
2018-08-06T01:08:36.361Z,21.80
2018-08-06T01:11:07.686Z,21.70
2018-08-06T01:13:36.847Z,21.60
2018-08-06T01:16:06.528Z,21.40
2018-08-06T01:18:36.587Z,21.40
2018-08-06T01:21:06.627Z,21.40
2018-08-06T01:23:36.609Z,21.30
2018-08-06T01:26:06.611Z,21.60
2018-08-06T01:28:36.634Z,21.60
2018-08-06T01:31:06.722Z,21.70
2018-08-06T01:33:36.674Z,21.80
2018-08-06T01:36:06.698Z,21.60
2018-08-06T01:38:36.762Z,21.60
2018-08-06T01:41:07.147Z,21.40
2018-08-06T01:43:36.931Z,21.40
2018-08-06T01:46:06.721Z,21.30
2018-08-06T01:48:37.122Z,21.30
2018-08-06T01:51:06.830Z,21.20
2018-08-06T01:53:36.994Z,21.10
2018-08-06T01:56:06.770Z,21.30
2018-08-06T01:58:37.249Z,21.60
2018-08-06T02:01:06.999Z,21.90
2018-08-06T02:03:36.929Z,22.30
2018-08-06T02:06:06.993Z,23.00
2018-08-06T02:08:37.070Z,23.30
2018-08-06T02:11:07.055Z,23.60
2018-08-06T02:13:37.070Z,23.70
2018-08-06T02:16:07.114Z,23.90
2018-08-06T02:18:37.106Z,23.70
2018-08-06T02:21:07.334Z,23.40
2018-08-06T02:23:37.154Z,23.20
2018-08-06T02:26:07.230Z,22.40
2018-08-06T02:28:37.114Z,21.90
2018-08-06T02:31:06.440Z,21.60
2018-08-06T02:33:35.580Z,21.50
2018-08-06T02:36:04.797Z,21.40
2018-08-06T02:38:33.970Z,21.40
2018-08-06T02:41:03.173Z,21.10
2018-08-06T02:43:32.284Z,21.20
2018-08-06T02:46:01.381Z,20.80
2018-08-06T02:48:30.573Z,21.00
2018-08-06T02:50:59.634Z,20.90
2018-08-06T02:53:28.813Z,20.80
2018-08-06T02:55:58.165Z,20.70
2018-08-06T02:58:27.249Z,20.90
2018-08-06T03:00:56.342Z,20.70
2018-08-06T03:03:25.462Z,20.50
2018-08-06T03:05:54.570Z,20.70
2018-08-06T03:08:23.744Z,21.00
2018-08-06T03:10:52.840Z,21.10
2018-08-06T03:13:21.930Z,21.20
2018-08-06T03:15:51.051Z,21.30
2018-08-06T03:18:20.188Z,21.00
2018-08-06T03:20:49.476Z,20.80
2018-08-06T03:23:18.682Z,20.40
2018-08-06T03:25:47.982Z,20.30
2018-08-06T03:28:17.732Z,20.20
2018-08-06T03:30:47.003Z,20.00
2018-08-06T03:33:16.093Z,19.90
2018-08-06T03:35:45.250Z,20.00
2018-08-06T03:38:14.394Z,20.20
2018-08-06T03:40:43.626Z,20.10
2018-08-06T03:43:12.665Z,20.00
2018-08-06T03:45:41.846Z,20.00
2018-08-06T03:48:10.957Z,20.00
2018-08-06T03:50:40.141Z,20.10
2018-08-06T03:53:09.150Z,20.00
2018-08-06T03:55:38.218Z,20.20
2018-08-06T03:58:07.305Z,20.00
2018-08-06T04:00:36.514Z,20.00
2018-08-06T04:03:05.625Z,20.00
2018-08-06T04:05:34.891Z,20.40
2018-08-06T04:08:04.059Z,20.70
2018-08-06T04:10:33.346Z,20.90
2018-08-06T04:13:02.492Z,21.10
2018-08-06T04:15:31.714Z,20.70
2018-08-06T04:18:00.821Z,20.50
2018-08-06T04:20:29.934Z,20.50
2018-08-06T04:22:59.110Z,20.60
2018-08-06T04:25:28.286Z,20.40
2018-08-06T04:27:57.456Z,20.30
2018-08-06T04:30:27.461Z,20.20
2018-08-06T04:32:56.755Z,20.00
2018-08-06T04:35:25.817Z,20.20
2018-08-06T04:37:55.010Z,20.50
2018-08-06T04:40:24.285Z,21.00
2018-08-06T04:42:53.414Z,20.60
2018-08-06T04:45:23.267Z,20.40
2018-08-06T04:47:52.431Z,20.30
2018-08-06T04:50:21.494Z,20.50
2018-08-06T04:52:50.722Z,20.90
2018-08-06T04:55:19.881Z,21.50
2018-08-06T04:57:49.026Z,21.50
2018-08-06T05:00:18.186Z,21.50
2018-08-06T05:02:47.248Z,21.10
2018-08-06T05:05:16.375Z,21.00
2018-08-06T05:07:45.602Z,21.00
2018-08-06T05:10:14.694Z,21.20
2018-08-06T05:12:43.801Z,21.70
2018-08-06T05:15:13.000Z,21.90
2018-08-06T05:17:42.106Z,22.00
2018-08-06T05:20:11.230Z,22.10
2018-08-06T05:22:40.402Z,22.40
2018-08-06T05:25:09.578Z,22.60
2018-08-06T05:27:38.809Z,22.80
2018-08-06T05:30:10.255Z,23.10
2018-08-06T05:32:39.414Z,23.20
2018-08-06T05:35:08.678Z,23.40
2018-08-06T05:37:37.753Z,23.50
2018-08-06T05:40:08.119Z,23.40
2018-08-06T05:42:37.445Z,23.40
2018-08-06T05:45:07.503Z,23.70
2018-08-06T05:47:36.761Z,23.70
2018-08-06T05:50:09.252Z,23.60
2018-08-06T05:52:38.418Z,23.50
2018-08-06T05:55:08.679Z,23.10
2018-08-06T05:57:37.849Z,23.20
2018-08-06T06:00:13.621Z,23.10
2018-08-06T06:02:42.869Z,23.00
2018-08-06T06:05:12.131Z,22.90
2018-08-06T06:07:41.538Z,22.80
2018-08-06T06:10:12.977Z,23.00
2018-08-06T06:12:42.044Z,23.00
2018-08-06T06:15:14.286Z,23.20
2018-08-06T06:17:44.129Z,23.10
2018-08-06T06:20:13.473Z,23.20
2018-08-06T06:22:42.597Z,23.40
2018-08-06T06:25:12.929Z,23.70
2018-08-06T06:27:42.561Z,23.70
2018-08-06T06:30:14.926Z,23.60
2018-08-06T06:32:43.942Z,24.00
2018-08-06T06:35:13.730Z,24.00
2018-08-06T06:37:43.020Z,23.90
2018-08-06T06:40:12.121Z,23.90
2018-08-06T06:42:41.353Z,23.80
2018-08-06T06:45:10.890Z,23.80
2018-08-06T06:47:40.038Z,23.60
2018-08-06T06:50:09.423Z,23.70
2018-08-06T06:52:38.561Z,23.70
2018-08-06T06:55:10.235Z,23.70
2018-08-06T06:57:39.445Z,24.00
2018-08-06T07:00:09.484Z,24.20
2018-08-06T07:02:38.690Z,24.20
2018-08-06T07:05:08.126Z,24.30
2018-08-06T07:07:37.381Z,24.50
2018-08-06T07:10:09.474Z,24.50
2018-08-06T07:12:38.765Z,24.50
2018-08-06T07:15:11.782Z,24.50
2018-08-06T07:17:42.026Z,24.40
2018-08-06T07:20:11.273Z,24.50
2018-08-06T07:22:40.718Z,24.80
2018-08-06T07:25:11.285Z,24.70
2018-08-06T07:27:41.690Z,24.70
2018-08-06T07:30:13.787Z,24.80
2018-08-06T07:32:43.577Z,25.00
2018-08-06T07:35:13.406Z,25.00
2018-08-06T07:37:42.694Z,25.20
2018-08-06T07:40:14.409Z,25.20
2018-08-06T07:42:43.615Z,25.30
2018-08-06T07:45:16.546Z,25.40
2018-08-06T07:47:46.127Z,25.50
2018-08-06T07:50:16.918Z,25.80
2018-08-06T07:52:46.046Z,25.80
2018-08-06T07:55:15.098Z,25.90
2018-08-06T07:57:44.234Z,25.80
2018-08-06T08:00:19.224Z,25.70
2018-08-06T08:02:48.346Z,25.60
2018-08-06T08:05:18.370Z,25.80
2018-08-06T08:07:48.136Z,25.90
2018-08-06T08:10:22.187Z,25.90
2018-08-06T08:12:51.478Z,26.20
2018-08-06T08:15:23.709Z,26.20
2018-08-06T08:17:52.902Z,26.30
2018-08-06T08:20:22.254Z,26.40
2018-08-06T08:22:51.144Z,26.40
2018-08-06T08:25:21.717Z,26.60
2018-08-06T08:27:50.846Z,26.50
2018-08-06T08:30:20.222Z,26.50
2018-08-06T08:32:49.342Z,26.60
2018-08-06T08:35:18.690Z,26.80
2018-08-06T08:37:47.782Z,26.70
2018-08-06T08:40:18.598Z,26.70
2018-08-06T08:42:47.906Z,27.00
2018-08-06T08:45:18.117Z,27.10
2018-08-06T08:47:47.145Z,27.20
2018-08-06T08:50:18.226Z,27.40
2018-08-06T08:52:47.357Z,27.30
2018-08-06T08:55:17.899Z,27.20
2018-08-06T08:57:46.968Z,27.20
2018-08-06T09:00:19.836Z,27.20
2018-08-06T09:02:49.718Z,27.40
2018-08-06T09:05:19.302Z,27.40
2018-08-06T09:07:49.162Z,27.70
2018-08-06T09:10:18.873Z,27.80
2018-08-06T09:12:48.381Z,28.00
2018-08-06T09:15:20.565Z,27.90
2018-08-06T09:17:49.722Z,28.00
2018-08-06T09:20:18.814Z,28.10
2018-08-06T09:22:48.007Z,28.40
2018-08-06T09:25:17.195Z,28.40
2018-08-06T09:27:47.874Z,28.30
2018-08-06T09:30:18.322Z,28.50
2018-08-06T09:32:50.457Z,28.60
2018-08-06T09:35:19.981Z,28.90
2018-08-06T09:37:49.071Z,28.90
2018-08-06T09:40:19.280Z,28.90
2018-08-06T09:42:48.802Z,29.00
2018-08-06T09:45:18.962Z,29.10
2018-08-06T09:47:49.242Z,29.20
2018-08-06T09:50:19.058Z,29.30
2018-08-06T09:52:49.074Z,29.40
2018-08-06T09:55:24.208Z,29.40
2018-08-06T09:57:53.481Z,29.40
2018-08-06T10:00:28.445Z,29.60
2018-08-06T10:02:59.700Z,29.80
2018-08-06T10:05:29.180Z,29.80
2018-08-06T10:07:58.310Z,29.20
2018-08-06T10:10:27.425Z,29.40
2018-08-06T10:12:56.484Z,29.60
2018-08-06T10:15:25.632Z,29.80
2018-08-06T10:17:55.333Z,29.80
2018-08-06T10:20:25.679Z,30.10
2018-08-06T10:22:54.942Z,30.10
2018-08-06T10:25:23.998Z,30.10
2018-08-06T10:27:53.082Z,30.20
2018-08-06T10:30:23.107Z,30.10
2018-08-06T10:32:52.243Z,30.00
2018-08-06T10:35:21.702Z,29.70
2018-08-06T10:37:50.806Z,29.60
2018-08-06T10:40:22.742Z,29.60
2018-08-06T10:42:51.957Z,29.80
2018-08-06T10:45:22.062Z,30.00
2018-08-06T10:47:51.604Z,29.90
2018-08-06T10:50:20.666Z,29.70
2018-08-06T10:52:49.786Z,29.70
2018-08-06T10:55:18.850Z,30.00
2018-08-06T10:57:47.931Z,30.40
2018-08-06T11:00:18.810Z,30.60
2018-08-06T11:02:48.082Z,30.60
2018-08-06T11:05:17.771Z,30.60
2018-08-06T11:07:47.045Z,30.90
2018-08-06T11:10:17.436Z,31.20
2018-08-06T11:12:46.497Z,31.30
2018-08-06T11:15:17.787Z,31.80
2018-08-06T11:17:47.044Z,32.10
2018-08-06T11:20:16.940Z,32.50
2018-08-06T11:22:45.994Z,32.90
2018-08-06T11:25:17.241Z,32.70
2018-08-06T11:27:46.488Z,32.10
2018-08-06T11:30:17.766Z,32.90
2018-08-06T11:32:47.566Z,32.80
2018-08-06T11:35:17.102Z,32.90
2018-08-06T11:37:46.186Z,33.00
2018-08-06T11:40:16.134Z,33.30
2018-08-06T11:42:45.934Z,33.30
2018-08-06T11:45:16.566Z,33.00
2018-08-06T11:47:45.673Z,33.40
2018-08-06T11:50:14.839Z,33.50
2018-08-06T11:52:44.061Z,33.30
2018-08-06T11:55:13.116Z,33.20
2018-08-06T11:57:42.302Z,33.30
2018-08-06T12:00:16.338Z,33.20
2018-08-06T12:02:46.297Z,33.50
2018-08-06T12:05:15.539Z,33.50
2018-08-06T12:07:44.669Z,33.30
2018-08-06T12:10:15.765Z,32.80
2018-08-06T12:12:45.793Z,33.00
2018-08-06T12:15:15.093Z,32.90
2018-08-06T12:17:44.425Z,32.30
2018-08-06T12:20:15.854Z,32.70
2018-08-06T12:22:46.114Z,32.90
2018-08-06T12:25:15.897Z,33.00
2018-08-06T12:27:45.579Z,32.90
2018-08-06T12:30:17.376Z,32.70
2018-08-06T12:32:47.357Z,32.70
2018-08-06T12:35:16.968Z,31.60
2018-08-06T12:37:46.542Z,31.50
2018-08-06T12:40:16.790Z,31.40
2018-08-06T12:42:45.851Z,31.40
2018-08-06T12:45:15.618Z,31.00
2018-08-06T12:47:46.139Z,30.80
2018-08-06T12:50:16.065Z,30.60
2018-08-06T12:52:45.416Z,31.10
2018-08-06T12:55:15.871Z,31.60
2018-08-06T12:57:45.444Z,31.80
2018-08-06T13:00:21.031Z,32.10
2018-08-06T13:02:50.591Z,32.60
2018-08-06T13:05:20.221Z,33.40
2018-08-06T13:07:49.355Z,33.90
2018-08-06T13:10:18.409Z,34.00
2018-08-06T13:12:47.481Z,34.20
2018-08-06T13:15:17.083Z,34.30
2018-08-06T13:17:46.086Z,34.00
2018-08-06T13:20:15.146Z,34.10
2018-08-06T13:22:44.216Z,34.30
2018-08-06T13:25:13.463Z,33.90
2018-08-06T13:27:42.498Z,34.20
2018-08-06T13:30:13.981Z,34.20
2018-08-06T13:32:43.760Z,34.30
2018-08-06T13:35:13.901Z,34.80
2018-08-06T13:37:43.049Z,35.00
2018-08-06T13:40:12.617Z,34.40
2018-08-06T13:42:41.729Z,33.60
2018-08-06T13:45:12.845Z,33.00
2018-08-06T13:47:42.105Z,32.40
2018-08-06T13:50:11.829Z,31.80
2018-08-06T13:52:40.969Z,31.60
2018-08-06T13:55:11.670Z,31.40
2018-08-06T13:57:40.923Z,31.20
2018-08-06T14:00:17.726Z,31.00
2018-08-06T14:02:47.298Z,31.00
2018-08-06T14:05:17.357Z,31.00
2018-08-06T14:07:47.485Z,31.00
2018-08-06T14:10:16.769Z,31.00
2018-08-06T14:12:45.830Z,31.00
2018-08-06T14:15:14.946Z,30.90
2018-08-06T14:17:44.194Z,30.80
2018-08-06T14:20:15.414Z,30.90
2018-08-06T14:22:44.601Z,31.00
2018-08-06T14:25:13.786Z,31.00
2018-08-06T14:27:42.834Z,30.90
2018-08-06T14:30:14.145Z,31.00
2018-08-06T14:32:43.806Z,31.00
2018-08-06T14:35:13.446Z,30.80
2018-08-06T14:37:42.550Z,30.90
2018-08-06T14:40:16.381Z,30.90
2018-08-06T14:42:45.821Z,30.90
2018-08-06T14:45:14.866Z,31.00
2018-08-06T14:47:43.934Z,31.10
2018-08-06T14:50:14.409Z,31.20
2018-08-06T14:52:43.519Z,31.20
2018-08-06T14:55:12.717Z,31.20
2018-08-06T14:57:42.237Z,31.00
2018-08-06T15:00:20.946Z,31.00
2018-08-06T15:02:51.403Z,31.10
2018-08-06T15:05:20.620Z,31.10
2018-08-06T15:07:49.735Z,31.00
2018-08-06T15:10:18.807Z,31.10
2018-08-06T15:12:47.876Z,31.20
2018-08-06T15:15:17.956Z,31.40
2018-08-06T15:17:47.330Z,31.50
2018-08-06T15:20:17.803Z,31.60
2018-08-06T15:22:47.234Z,31.60
2018-08-06T15:25:21.451Z,31.70
2018-08-06T15:27:50.953Z,31.60
2018-08-06T15:30:20.114Z,31.50
2018-08-06T15:32:49.218Z,31.70
2018-08-06T15:35:18.342Z,31.80
2018-08-06T15:37:47.504Z,31.80
2018-08-06T15:40:18.529Z,31.80
2018-08-06T15:42:47.566Z,31.90
2018-08-06T15:45:16.702Z,31.90
2018-08-06T15:47:46.308Z,31.80
2018-08-06T15:50:18.838Z,31.80
2018-08-06T15:52:47.883Z,32.00
2018-08-06T15:55:16.986Z,31.90
2018-08-06T15:57:46.169Z,32.00
2018-08-06T16:00:17.234Z,32.10
2018-08-06T16:02:46.637Z,32.00
2018-08-06T16:05:15.937Z,32.00
2018-08-06T16:07:45.240Z,31.90
2018-08-06T16:10:14.779Z,31.90
2018-08-06T16:12:44.034Z,31.60
2018-08-06T16:15:14.230Z,31.70
2018-08-06T16:17:43.906Z,31.50
2018-08-06T16:20:14.357Z,31.40
2018-08-06T16:22:43.527Z,31.50
2018-08-06T16:25:13.204Z,31.60
2018-08-06T16:27:42.267Z,31.70
2018-08-06T16:30:15.186Z,31.60
2018-08-06T16:32:45.040Z,31.80
2018-08-06T16:35:14.387Z,31.90
2018-08-06T16:37:43.484Z,31.90
2018-08-06T16:40:13.091Z,31.80
2018-08-06T16:42:42.288Z,31.90
2018-08-06T16:45:11.484Z,31.80
2018-08-06T16:47:40.707Z,31.80
2018-08-06T16:50:14.843Z,31.80
2018-08-06T16:52:44.251Z,31.90
2018-08-06T16:55:13.247Z,32.00
2018-08-06T16:57:42.513Z,32.00
2018-08-06T17:00:15.946Z,32.10
2018-08-06T17:02:45.358Z,31.90
2018-08-06T17:05:14.782Z,31.90
2018-08-06T17:07:45.243Z,31.60
2018-08-06T17:10:16.422Z,31.50
2018-08-06T17:12:46.668Z,31.40
2018-08-06T17:15:17.130Z,31.20
2018-08-06T17:17:46.905Z,30.90
2018-08-06T17:20:18.445Z,30.70
2018-08-06T17:22:48.604Z,30.30
2018-08-06T17:25:17.541Z,30.20
2018-08-06T17:27:46.553Z,30.00
2018-08-06T17:30:16.387Z,29.90
2018-08-06T17:32:45.531Z,29.90
2018-08-06T17:35:15.022Z,29.80
2018-08-06T17:37:44.180Z,29.60
2018-08-06T17:40:16.604Z,29.70
2018-08-06T17:42:45.791Z,29.70
2018-08-06T17:45:17.426Z,29.50
2018-08-06T17:47:46.578Z,29.50
2018-08-06T17:50:18.015Z,29.40
2018-08-06T17:52:48.187Z,29.20
2018-08-06T17:55:18.241Z,29.10
2018-08-06T17:57:47.515Z,29.00
2018-08-06T18:00:17.006Z,28.90
2018-08-06T18:02:46.261Z,29.00
2018-08-06T18:05:16.331Z,28.90
2018-08-06T18:07:45.725Z,28.80
2018-08-06T18:10:15.982Z,28.70
2018-08-06T18:12:45.694Z,28.60
2018-08-06T18:15:14.786Z,28.60
2018-08-06T18:17:43.952Z,28.60
2018-08-06T18:20:15.376Z,28.60
2018-08-06T18:22:44.613Z,28.40
2018-08-06T18:25:15.710Z,28.40
2018-08-06T18:27:45.874Z,28.30
2018-08-06T18:30:18.230Z,28.30
2018-08-06T18:32:47.318Z,28.30
2018-08-06T18:35:17.395Z,28.20
2018-08-06T18:37:46.438Z,28.20
2018-08-06T18:40:16.593Z,28.20
2018-08-06T18:42:45.650Z,28.30
2018-08-06T18:45:17.566Z,28.10
2018-08-06T18:47:47.630Z,27.90
2018-08-06T18:50:17.562Z,28.00
2018-08-06T18:52:47.405Z,27.90
2018-08-06T18:55:16.781Z,27.80
2018-08-06T18:57:46.184Z,27.60
2018-08-06T19:00:18.823Z,27.50
2018-08-06T19:02:47.942Z,27.50
2018-08-06T19:05:17.019Z,27.40
2018-08-06T19:07:46.091Z,27.30
2018-08-06T19:10:15.142Z,27.30
2018-08-06T19:12:49.441Z,27.30
2018-08-06T19:15:18.522Z,27.20
2018-08-06T19:17:52.893Z,27.20
2018-08-06T19:20:22.024Z,27.10
2018-08-06T19:22:51.203Z,27.10
2018-08-06T19:25:26.082Z,27.30
2018-08-06T19:27:55.591Z,27.70
2018-08-06T19:30:29.934Z,27.80
2018-08-06T19:32:59.603Z,27.50
2018-08-06T19:35:28.837Z,27.10
2018-08-06T19:37:58.119Z,26.90
2018-08-06T19:40:32.073Z,26.70
2018-08-06T19:43:06.546Z,26.60
2018-08-06T19:45:35.798Z,26.50
2018-08-06T19:48:04.893Z,26.50
2018-08-06T19:50:39.506Z,26.40
2018-08-06T19:53:08.802Z,26.50
2018-08-06T19:55:43.184Z,26.50
2018-08-06T19:58:12.261Z,26.50
2018-08-06T20:00:41.470Z,26.50
2018-08-06T20:03:10.538Z,26.50
2018-08-06T20:05:39.553Z,26.60
2018-08-06T20:08:08.622Z,26.60
2018-08-06T20:10:39.832Z,26.60
2018-08-06T20:13:11.538Z,26.60
2018-08-06T20:15:40.642Z,26.60
2018-08-06T20:18:09.715Z,26.60
2018-08-06T20:20:38.817Z,26.60
2018-08-06T20:23:07.877Z,26.60
2018-08-06T20:25:37.059Z,26.50
2018-08-06T20:28:06.123Z,26.40
2018-08-06T20:30:35.412Z,26.40
2018-08-06T20:33:04.833Z,26.40
2018-08-06T20:35:34.114Z,26.40
2018-08-06T20:38:03.106Z,26.40
2018-08-06T20:40:32.259Z,26.40
2018-08-06T20:43:01.527Z,26.40
2018-08-06T20:45:30.705Z,26.40
2018-08-06T20:47:59.814Z,26.30
2018-08-06T20:50:28.890Z,26.30
2018-08-06T20:52:58.043Z,26.40
2018-08-06T20:55:27.336Z,26.30
2018-08-06T20:57:56.501Z,26.30
2018-08-06T21:00:26.670Z,26.40
2018-08-06T21:02:55.831Z,26.30
2018-08-06T21:05:24.938Z,26.30
2018-08-06T21:07:54.074Z,26.30
2018-08-06T21:10:23.135Z,26.40
2018-08-06T21:12:51.964Z,26.50
2018-08-06T21:15:21.511Z,26.40
2018-08-06T21:17:51.718Z,26.20
2018-08-06T21:20:21.641Z,26.20
2018-08-06T21:22:51.743Z,26.20
2018-08-06T21:25:21.851Z,26.20
2018-08-06T21:27:51.905Z,26.10
2018-08-06T21:30:22.193Z,26.10
2018-08-06T21:32:55.186Z,26.00
2018-08-06T21:35:25.583Z,26.00
2018-08-06T21:37:55.292Z,26.20
2018-08-06T21:40:25.014Z,26.30
2018-08-06T21:42:54.095Z,26.20
2018-08-06T21:45:23.254Z,26.20
2018-08-06T21:47:52.322Z,26.10
2018-08-06T21:50:22.162Z,26.10
2018-08-06T21:52:52.121Z,26.10
2018-08-06T21:55:22.111Z,26.00
2018-08-06T21:57:52.170Z,26.00
2018-08-06T22:00:37.978Z,26.00
2018-08-06T22:03:11.010Z,25.90
2018-08-06T22:05:40.189Z,26.00
2018-08-06T22:08:09.454Z,26.00
2018-08-06T22:10:38.541Z,25.90
2018-08-06T22:13:08.276Z,26.00
2018-08-06T22:15:37.455Z,25.90
2018-08-06T22:18:07.863Z,26.00
2018-08-06T22:20:37.026Z,26.10
2018-08-06T22:23:06.366Z,25.80
2018-08-06T22:25:35.505Z,25.90
2018-08-06T22:28:05.219Z,26.00
2018-08-06T22:30:34.242Z,26.20
2018-08-06T22:33:03.384Z,26.00
2018-08-06T22:35:32.526Z,26.10
2018-08-06T22:38:01.648Z,26.10
2018-08-06T22:40:30.782Z,26.10
2018-08-06T22:42:59.918Z,26.00
2018-08-06T22:45:29.071Z,25.90
2018-08-06T22:47:58.213Z,25.80
2018-08-06T22:50:27.255Z,25.60
2018-08-06T22:52:56.321Z,25.60
2018-08-06T22:55:25.572Z,25.70
2018-08-06T22:57:54.826Z,25.70
2018-08-06T23:00:24.015Z,25.70
2018-08-06T23:02:53.082Z,25.50
2018-08-06T23:05:23.238Z,25.30
2018-08-06T23:07:53.166Z,25.30
2018-08-06T23:10:23.204Z,25.40
2018-08-06T23:12:53.313Z,25.50
2018-08-06T23:15:23.293Z,25.60
2018-08-06T23:17:53.371Z,25.60
2018-08-06T23:20:23.339Z,25.70
2018-08-06T23:22:53.353Z,25.50
2018-08-06T23:25:24.292Z,25.30
2018-08-06T23:27:53.457Z,25.20
2018-08-06T23:30:23.474Z,25.10
2018-08-06T23:32:53.547Z,25.10
2018-08-06T23:35:23.538Z,25.20
2018-08-06T23:37:53.604Z,25.20
2018-08-06T23:40:23.661Z,25.10
2018-08-06T23:42:53.728Z,25.00
2018-08-06T23:45:23.662Z,24.90
2018-08-06T23:47:53.718Z,25.20
2018-08-06T23:50:23.695Z,25.40
2018-08-06T23:52:53.711Z,25.40
2018-08-06T23:55:23.921Z,25.20
2018-08-06T23:57:53.802Z,25.10
